sensor_id;sensor_type;location;lat;lon;timestamp;pressure;altitude;pressure_sealevel;temperature;humidity
13387;BME280;6763;48.524;9.044;2023-02-28T00:01:23;98357.47;;;3.74;37.18
13387;BME280;6763;48.524;9.044;2023-02-28T00:03:49;98365.16;;;3.74;37.56
13387;BME280;6763;48.524;9.044;2023-02-28T00:06:15;98366.84;;;3.72;37.55
13387;BME280;6763;48.524;9.044;2023-02-28T00:08:40;98364.34;;;3.75;37.66
13387;BME280;6763;48.524;9.044;2023-02-28T00:11:10;98366.91;;;3.77;37.34
13387;BME280;6763;48.524;9.044;2023-02-28T00:13:38;98370.34;;;3.78;37.67
13387;BME280;6763;48.524;9.044;2023-02-28T00:16:07;98366.88;;;3.75;37.58
13387;BME280;6763;48.524;9.044;2023-02-28T00:18:33;98365.97;;;3.73;37.56
13387;BME280;6763;48.524;9.044;2023-02-28T00:20:59;98372.00;;;3.75;37.82
13387;BME280;6763;48.524;9.044;2023-02-28T00:23:25;98367.72;;;3.74;37.63
13387;BME280;6763;48.524;9.044;2023-02-28T00:25:51;98364.28;;;3.74;37.72
13387;BME280;6763;48.524;9.044;2023-02-28T00:28:17;98370.22;;;3.71;37.95
13387;BME280;6763;48.524;9.044;2023-02-28T00:30:42;98368.50;;;3.70;37.87
13387;BME280;6763;48.524;9.044;2023-02-28T00:33:08;98362.44;;;3.65;38.04
13387;BME280;6763;48.524;9.044;2023-02-28T00:35:33;98364.09;;;3.63;37.93
13387;BME280;6763;48.524;9.044;2023-02-28T00:37:58;98364.09;;;3.62;38.28
13387;BME280;6763;48.524;9.044;2023-02-28T00:40:24;98364.06;;;3.60;37.82
13387;BME280;6763;48.524;9.044;2023-02-28T00:42:49;98364.88;;;3.58;38.16
13387;BME280;6763;48.524;9.044;2023-02-28T00:45:14;98360.53;;;3.55;38.11
13387;BME280;6763;48.524;9.044;2023-02-28T00:47:40;98362.28;;;3.56;38.66
13387;BME280;6763;48.524;9.044;2023-02-28T00:50:06;98361.41;;;3.56;38.12
13387;BME280;6763;48.524;9.044;2023-02-28T00:52:31;98356.28;;;3.54;38.45
13387;BME280;6763;48.524;9.044;2023-02-28T00:54:56;98362.28;;;3.56;38.24
13387;BME280;6763;48.524;9.044;2023-02-28T00:57:22;98366.53;;;3.56;38.45
13387;BME280;6763;48.524;9.044;2023-02-28T00:59:48;98369.13;;;3.57;38.25
13387;BME280;6763;48.524;9.044;2023-02-28T01:02:13;98361.38;;;3.54;38.47
13387;BME280;6763;48.524;9.044;2023-02-28T01:04:39;98360.56;;;3.57;38.42
13387;BME280;6763;48.524;9.044;2023-02-28T01:07:04;98357.97;;;3.55;38.23
13387;BME280;6763;48.524;9.044;2023-02-28T01:09:29;98354.47;;;3.50;38.24
13387;BME280;6763;48.524;9.044;2023-02-28T01:11:55;98351.03;;;3.48;38.48
13387;BME280;6763;48.524;9.044;2023-02-28T01:14:20;98363.81;;;3.47;38.62
13387;BME280;6763;48.524;9.044;2023-02-28T01:16:46;98352.63;;;3.42;39.01
13387;BME280;6763;48.524;9.044;2023-02-28T01:19:11;98359.44;;;3.41;38.98
13387;BME280;6763;48.524;9.044;2023-02-28T01:21:36;98366.28;;;3.42;38.31
13387;BME280;6763;48.524;9.044;2023-02-28T01:24:03;98359.44;;;3.41;38.78
13387;BME280;6763;48.524;9.044;2023-02-28T01:26:29;98360.25;;;3.39;39.14
13387;BME280;6763;48.524;9.044;2023-02-28T01:28:55;98359.38;;;3.38;38.95
13387;BME280;6763;48.524;9.044;2023-02-28T01:31:21;98357.63;;;3.36;39.31
13387;BME280;6763;48.524;9.044;2023-02-28T01:33:47;98355.06;;;3.34;39.09
13387;BME280;6763;48.524;9.044;2023-02-28T01:36:15;98359.25;;;3.31;39.67
13387;BME280;6763;48.524;9.044;2023-02-28T01:38:41;98352.38;;;3.28;39.79
13387;BME280;6763;48.524;9.044;2023-02-28T01:41:07;98348.13;;;3.29;39.44
13387;BME280;6763;48.524;9.044;2023-02-28T01:43:56;98341.25;;;3.26;39.63
13387;BME280;6763;48.524;9.044;2023-02-28T01:46:22;98341.19;;;3.23;39.63
13387;BME280;6763;48.524;9.044;2023-02-28T01:48:53;98343.75;;;3.23;39.84
13387;BME280;6763;48.524;9.044;2023-02-28T01:51:30;98341.19;;;3.22;39.66
13387;BME280;6763;48.524;9.044;2023-02-28T01:54:02;98341.13;;;3.20;39.71
13387;BME280;6763;48.524;9.044;2023-02-28T01:56:30;98334.25;;;3.18;39.81
13387;BME280;6763;48.524;9.044;2023-02-28T01:58:58;98334.34;;;3.22;40.05
13387;BME280;6763;48.524;9.044;2023-02-28T02:01:25;98336.91;;;3.22;39.86
13387;BME280;6763;48.524;9.044;2023-02-28T02:03:55;98333.56;;;3.26;39.96
13387;BME280;6763;48.524;9.044;2023-02-28T02:06:29;98331.09;;;3.29;39.95
13387;BME280;6763;48.524;9.044;2023-02-28T02:08:55;98330.28;;;3.33;40.18
13387;BME280;6763;48.524;9.044;2023-02-28T02:11:21;98332.91;;;3.38;40.22
13387;BME280;6763;48.524;9.044;2023-02-28T02:16:55;98314.22;;;3.40;40.28
13387;BME280;6763;48.524;9.044;2023-02-28T02:20:08;98316.06;;;3.47;39.96
13387;BME280;6763;48.524;9.044;2023-02-28T02:26:33;98302.34;;;3.42;40.29
13387;BME280;6763;48.524;9.044;2023-02-28T02:31:43;98305.91;;;3.53;40.18
13387;BME280;6763;48.524;9.044;2023-02-28T02:34:37;98306.78;;;3.54;40.16
13387;BME280;6763;48.524;9.044;2023-02-28T02:37:37;98310.97;;;3.50;40.26
13387;BME280;6763;48.524;9.044;2023-02-28T02:42:52;98310.09;;;3.47;40.82
13387;BME280;6763;48.524;9.044;2023-02-28T02:45:32;98303.16;;;3.41;40.45
13387;BME280;6763;48.524;9.044;2023-02-28T02:48:02;98306.47;;;3.37;40.89
13387;BME280;6763;48.524;9.044;2023-02-28T02:50:39;98309.94;;;3.39;40.82
13387;BME280;6763;48.524;9.044;2023-02-28T02:53:09;98312.53;;;3.41;40.82
13387;BME280;6763;48.524;9.044;2023-02-28T02:55:39;98319.31;;;3.40;40.79
13387;BME280;6763;48.524;9.044;2023-02-28T02:58:09;98325.28;;;3.39;41.29
13387;BME280;6763;48.524;9.044;2023-02-28T03:00:40;98316.78;;;3.40;41.08
13387;BME280;6763;48.524;9.044;2023-02-28T03:03:08;98320.25;;;3.42;40.97
13387;BME280;6763;48.524;9.044;2023-02-28T03:05:47;98322.88;;;3.47;40.96
13387;BME280;6763;48.524;9.044;2023-02-28T03:08:13;98317.78;;;3.48;40.65
13387;BME280;6763;48.524;9.044;2023-02-28T03:10:42;98319.56;;;3.54;40.84
13387;BME280;6763;48.524;9.044;2023-02-28T03:18:35;98318.16;;;3.71;40.44
13387;BME280;6763;48.524;9.044;2023-02-28T03:21:38;98316.50;;;3.74;40.54
13387;BME280;6763;48.524;9.044;2023-02-28T03:24:15;98314.94;;;3.81;40.51
13387;BME280;6763;48.524;9.044;2023-02-28T03:26:47;98308.19;;;3.86;40.57
13387;BME280;6763;48.524;9.044;2023-02-28T03:31:45;98310.81;;;3.92;40.65
13387;BME280;6763;48.524;9.044;2023-02-28T03:34:24;98310.88;;;3.94;40.52
13387;BME280;6763;48.524;9.044;2023-02-28T03:36:54;98304.06;;;3.94;40.19
13387;BME280;6763;48.524;9.044;2023-02-28T03:39:25;98298.94;;;3.97;40.46
13387;BME280;6763;48.524;9.044;2023-02-28T03:41:57;98299.78;;;3.95;40.34
13387;BME280;6763;48.524;9.044;2023-02-28T03:44:30;98299.00;;;3.99;40.52
13387;BME280;6763;48.524;9.044;2023-02-28T03:47:10;98305.00;;;4.02;40.55
13387;BME280;6763;48.524;9.044;2023-02-28T03:50:10;98305.00;;;4.02;40.57
13387;BME280;6763;48.524;9.044;2023-02-28T03:52:42;98307.66;;;4.07;40.48
13387;BME280;6763;48.524;9.044;2023-02-28T03:55:12;98311.09;;;4.10;40.52
13387;BME280;6763;48.524;9.044;2023-02-28T04:00:11;98318.94;;;4.19;40.46
13387;BME280;6763;48.524;9.044;2023-02-28T04:02:37;98312.97;;;4.20;40.47
13387;BME280;6763;48.524;9.044;2023-02-28T04:05:05;98308.75;;;4.22;40.50
13387;BME280;6763;48.524;9.044;2023-02-28T04:07:30;98307.03;;;4.23;40.49
13387;BME280;6763;48.524;9.044;2023-02-28T04:09:56;98309.59;;;4.23;40.45
13387;BME280;6763;48.524;9.044;2023-02-28T04:12:22;98312.19;;;4.24;40.46
13387;BME280;6763;48.524;9.044;2023-02-28T04:14:48;98306.19;;;4.24;40.48
13387;BME280;6763;48.524;9.044;2023-02-28T04:17:14;98307.88;;;4.23;40.67
13387;BME280;6763;48.524;9.044;2023-02-28T04:19:39;98302.81;;;4.25;40.82
13387;BME280;6763;48.524;9.044;2023-02-28T04:22:05;98307.06;;;4.26;40.61
13387;BME280;6763;48.524;9.044;2023-02-28T04:24:30;98300.28;;;4.28;40.51
13387;BME280;6763;48.524;9.044;2023-02-28T04:26:57;98308.03;;;4.32;40.71
13387;BME280;6763;48.524;9.044;2023-02-28T04:29:25;98308.00;;;4.31;40.65
13387;BME280;6763;48.524;9.044;2023-02-28T04:31:52;98307.16;;;4.32;40.68
13387;BME280;6763;48.524;9.044;2023-02-28T04:34:19;98308.03;;;4.34;41.08
13387;BME280;6763;48.524;9.044;2023-02-28T04:36:46;98306.31;;;4.31;40.87
13387;BME280;6763;48.524;9.044;2023-02-28T04:39:14;98305.47;;;4.32;40.84
13387;BME280;6763;48.524;9.044;2023-02-28T04:41:40;98304.63;;;4.33;41.14
13387;BME280;6763;48.524;9.044;2023-02-28T04:44:05;98308.03;;;4.32;40.84
13387;BME280;6763;48.524;9.044;2023-02-28T04:46:30;98300.34;;;4.32;41.03
13387;BME280;6763;48.524;9.044;2023-02-28T04:48:56;98308.91;;;4.34;40.88
13387;BME280;6763;48.524;9.044;2023-02-28T04:51:22;98308.91;;;4.33;41.16
13387;BME280;6763;48.524;9.044;2023-02-28T04:53:47;98307.22;;;4.35;41.17
13387;BME280;6763;48.524;9.044;2023-02-28T04:56:15;98304.66;;;4.35;41.31
13387;BME280;6763;48.524;9.044;2023-02-28T04:58:41;98308.03;;;4.34;41.57
13387;BME280;6763;48.524;9.044;2023-02-28T05:01:22;98299.50;;;4.33;41.51
13387;BME280;6763;48.524;9.044;2023-02-28T05:03:48;98312.31;;;4.33;41.62
13387;BME280;6763;48.524;9.044;2023-02-28T05:06:14;98315.72;;;4.34;41.84
13387;BME280;6763;48.524;9.044;2023-02-28T05:08:40;98314.03;;;4.33;41.72
13387;BME280;6763;48.524;9.044;2023-02-28T05:11:15;98308.03;;;4.32;41.86
13387;BME280;6763;48.524;9.044;2023-02-28T05:13:41;98303.72;;;4.30;42.00
13387;BME280;6763;48.524;9.044;2023-02-28T05:16:07;98324.19;;;4.28;41.69
13387;BME280;6763;48.524;9.044;2023-02-28T05:18:32;98317.31;;;4.24;42.22
13387;BME280;6763;48.524;9.044;2023-02-28T05:20:57;98319.00;;;4.25;42.13
13387;BME280;6763;48.524;9.044;2023-02-28T05:23:23;98328.47;;;4.28;42.43
13387;BME280;6763;48.524;9.044;2023-02-28T05:25:49;98325.94;;;4.31;42.17
13387;BME280;6763;48.524;9.044;2023-02-28T05:28:14;98323.38;;;4.31;42.29
13387;BME280;6763;48.524;9.044;2023-02-28T05:30:39;98319.97;;;4.32;42.35
13387;BME280;6763;48.524;9.044;2023-02-28T05:33:05;98314.84;;;4.30;42.55
13387;BME280;6763;48.524;9.044;2023-02-28T05:35:31;98319.94;;;4.29;42.87
13387;BME280;6763;48.524;9.044;2023-02-28T05:37:56;98320.78;;;4.28;42.84
13387;BME280;6763;48.524;9.044;2023-02-28T05:40:21;98310.50;;;4.26;42.87
13387;BME280;6763;48.524;9.044;2023-02-28T05:42:47;98319.88;;;4.26;43.04
13387;BME280;6763;48.524;9.044;2023-02-28T05:45:12;98317.31;;;4.26;43.22
13387;BME280;6763;48.524;9.044;2023-02-28T05:47:38;98328.44;;;4.26;43.16
13387;BME280;6763;48.524;9.044;2023-02-28T05:50:04;98319.06;;;4.28;43.06
13387;BME280;6763;48.524;9.044;2023-02-28T05:52:30;98317.34;;;4.27;43.03
13387;BME280;6763;48.524;9.044;2023-02-28T05:54:56;98322.47;;;4.27;43.18
13387;BME280;6763;48.524;9.044;2023-02-28T05:57:22;98319.09;;;4.30;43.07
13387;BME280;6763;48.524;9.044;2023-02-28T05:59:47;98317.41;;;4.30;42.98
13387;BME280;6763;48.524;9.044;2023-02-28T06:02:15;98318.28;;;4.32;43.07
13387;BME280;6763;48.524;9.044;2023-02-28T06:04:42;98324.22;;;4.30;42.91
13387;BME280;6763;48.524;9.044;2023-02-28T06:07:07;98327.66;;;4.30;43.09
13387;BME280;6763;48.524;9.044;2023-02-28T06:09:33;98325.91;;;4.28;43.12
13387;BME280;6763;48.524;9.044;2023-02-28T06:12:00;98335.34;;;4.30;43.10
13387;BME280;6763;48.524;9.044;2023-02-28T06:14:25;98338.72;;;4.29;43.04
13387;BME280;6763;48.524;9.044;2023-02-28T06:16:51;98342.16;;;4.31;43.02
13387;BME280;6763;48.524;9.044;2023-02-28T06:19:16;98337.09;;;4.34;43.17
13387;BME280;6763;48.524;9.044;2023-02-28T06:21:42;98352.53;;;4.37;42.96
13387;BME280;6763;48.524;9.044;2023-02-28T06:24:08;98342.34;;;4.44;42.86
13387;BME280;6763;48.524;9.044;2023-02-28T06:26:33;98348.38;;;4.46;42.82
13387;BME280;6763;48.524;9.044;2023-02-28T06:28:59;98344.94;;;4.47;42.64
13387;BME280;6763;48.524;9.044;2023-02-28T06:31:26;98347.50;;;4.47;42.48
13387;BME280;6763;48.524;9.044;2023-02-28T06:33:51;98357.00;;;4.51;42.30
13387;BME280;6763;48.524;9.044;2023-02-28T06:36:17;98345.88;;;4.50;42.42
13387;BME280;6763;48.524;9.044;2023-02-28T06:38:44;98359.56;;;4.52;42.15
13387;BME280;6763;48.524;9.044;2023-02-28T06:41:10;98360.47;;;4.56;42.15
13387;BME280;6763;48.524;9.044;2023-02-28T06:43:41;98357.06;;;4.57;42.03
13387;BME280;6763;48.524;9.044;2023-02-28T06:46:09;98351.91;;;4.57;41.80
13387;BME280;6763;48.524;9.044;2023-02-28T06:48:35;98363.09;;;4.59;41.84
13387;BME280;6763;48.524;9.044;2023-02-28T06:51:05;98368.22;;;4.60;41.87
13387;BME280;6763;48.524;9.044;2023-02-28T06:53:31;98358.88;;;4.64;41.47
13387;BME280;6763;48.524;9.044;2023-02-28T06:55:57;98368.31;;;4.66;41.70
13387;BME280;6763;48.524;9.044;2023-02-28T06:58:22;98365.75;;;4.68;41.43
13387;BME280;6763;48.524;9.044;2023-02-28T07:00:51;98364.13;;;4.73;41.57
13387;BME280;6763;48.524;9.044;2023-02-28T07:03:17;98369.28;;;4.76;41.27
13387;BME280;6763;48.524;9.044;2023-02-28T07:05:44;98372.78;;;4.81;41.30
13387;BME280;6763;48.524;9.044;2023-02-28T07:08:09;98376.25;;;4.84;41.08
13387;BME280;6763;48.524;9.044;2023-02-28T07:10:37;98378.03;;;4.90;41.16
13387;BME280;6763;48.524;9.044;2023-02-28T07:13:03;98371.22;;;4.93;41.19
13387;BME280;6763;48.524;9.044;2023-02-28T07:15:28;98372.13;;;4.97;40.69
13387;BME280;6763;48.524;9.044;2023-02-28T07:17:54;98382.44;;;5.01;40.51
13387;BME280;6763;48.524;9.044;2023-02-28T07:20:19;98379.94;;;5.03;40.69
13387;BME280;6763;48.524;9.044;2023-02-28T07:22:44;98385.06;;;5.06;40.37
13387;BME280;6763;48.524;9.044;2023-02-28T07:25:09;98378.28;;;5.11;40.30
13387;BME280;6763;48.524;9.044;2023-02-28T07:27:35;98382.59;;;5.14;39.82
13387;BME280;6763;48.524;9.044;2023-02-28T07:30:00;98380.06;;;5.15;40.09
13387;BME280;6763;48.524;9.044;2023-02-28T07:32:27;98380.97;;;5.20;40.08
13387;BME280;6763;48.524;9.044;2023-02-28T07:34:53;98375.88;;;5.23;39.65
13387;BME280;6763;48.524;9.044;2023-02-28T07:37:18;98381.97;;;5.31;39.56
13387;BME280;6763;48.524;9.044;2023-02-28T07:39:43;98377.78;;;5.41;39.93
13387;BME280;6763;48.524;9.044;2023-02-28T07:42:09;98382.19;;;5.49;39.51
13387;BME280;6763;48.524;9.044;2023-02-28T07:44:37;98375.38;;;5.56;39.24
13387;BME280;6763;48.524;9.044;2023-02-28T07:47:06;98376.28;;;5.61;39.48
13387;BME280;6763;48.524;9.044;2023-02-28T07:49:32;98382.31;;;5.63;39.11
13387;BME280;6763;48.524;9.044;2023-02-28T07:51:57;98379.78;;;5.66;39.00
13387;BME280;6763;48.524;9.044;2023-02-28T07:54:22;98384.09;;;5.72;38.84
13387;BME280;6763;48.524;9.044;2023-02-28T07:56:48;98385.84;;;5.73;38.89
13387;BME280;6763;48.524;9.044;2023-02-28T07:59:13;98385.84;;;5.73;39.01
13387;BME280;6763;48.524;9.044;2023-02-28T08:01:38;98390.19;;;5.78;38.89
13387;BME280;6763;48.524;9.044;2023-02-28T08:04:03;98395.44;;;5.86;38.95
13387;BME280;6763;48.524;9.044;2023-02-28T08:06:29;98392.94;;;5.93;38.79
13387;BME280;6763;48.524;9.044;2023-02-28T08:08:54;98392.13;;;6.00;38.53
13387;BME280;6763;48.524;9.044;2023-02-28T08:11:21;98398.19;;;6.07;38.29
13387;BME280;6763;48.524;9.044;2023-02-28T08:13:46;98393.06;;;6.10;37.98
13387;BME280;6763;48.524;9.044;2023-02-28T08:16:12;98405.06;;;6.09;38.27
13387;BME280;6763;48.524;9.044;2023-02-28T08:18:46;98410.22;;;6.11;38.09
13387;BME280;6763;48.524;9.044;2023-02-28T08:21:12;98412.81;;;6.14;38.29
13387;BME280;6763;48.524;9.044;2023-02-28T08:23:37;98409.38;;;6.15;38.09
13387;BME280;6763;48.524;9.044;2023-02-28T08:26:03;98412.78;;;6.12;37.82
13387;BME280;6763;48.524;9.044;2023-02-28T08:28:29;98408.53;;;6.14;37.95
13387;BME280;6763;48.524;9.044;2023-02-28T08:30:55;98410.28;;;6.18;37.85
13387;BME280;6763;48.524;9.044;2023-02-28T08:33:20;98409.47;;;6.24;37.67
13387;BME280;6763;48.524;9.044;2023-02-28T08:35:46;98408.63;;;6.28;37.51
13387;BME280;6763;48.524;9.044;2023-02-28T08:38:11;98405.25;;;6.34;37.55
13387;BME280;6763;48.524;9.044;2023-02-28T08:40:36;98408.72;;;6.37;37.79
13387;BME280;6763;48.524;9.044;2023-02-28T08:43:02;98414.75;;;6.42;37.64
13387;BME280;6763;48.524;9.044;2023-02-28T08:45:27;98403.66;;;6.48;37.57
13387;BME280;6763;48.524;9.044;2023-02-28T08:47:54;98404.53;;;6.48;36.99
13387;BME280;6763;48.524;9.044;2023-02-28T08:50:19;98404.56;;;6.53;37.07
13387;BME280;6763;48.524;9.044;2023-02-28T08:52:45;98405.47;;;6.61;37.12
13387;BME280;6763;48.524;9.044;2023-02-28T08:55:10;98411.56;;;6.75;37.03
13387;BME280;6763;48.524;9.044;2023-02-28T08:57:36;98407.38;;;6.89;37.08
13387;BME280;6763;48.524;9.044;2023-02-28T09:00:02;98421.16;;;7.06;36.46
13387;BME280;6763;48.524;9.044;2023-02-28T09:02:32;98421.25;;;7.15;36.30
13387;BME280;6763;48.524;9.044;2023-02-28T09:04:57;98422.97;;;7.19;35.98
13387;BME280;6763;48.524;9.044;2023-02-28T09:07:25;98429.00;;;7.24;35.60
13387;BME280;6763;48.524;9.044;2023-02-28T09:09:51;98428.16;;;7.28;35.46
13387;BME280;6763;48.524;9.044;2023-02-28T09:12:25;98430.75;;;7.34;35.14
13387;BME280;6763;48.524;9.044;2023-02-28T09:14:52;98427.34;;;7.43;35.16
13387;BME280;6763;48.524;9.044;2023-02-28T09:17:18;98429.09;;;7.53;35.15
13387;BME280;6763;48.524;9.044;2023-02-28T09:19:44;98440.31;;;7.60;34.88
13387;BME280;6763;48.524;9.044;2023-02-28T09:22:10;98431.72;;;7.64;34.55
13387;BME280;6763;48.524;9.044;2023-02-28T09:24:38;98437.78;;;7.70;34.29
13387;BME280;6763;48.524;9.044;2023-02-28T09:27:04;98438.66;;;7.80;34.27
13387;BME280;6763;48.524;9.044;2023-02-28T09:29:31;98441.25;;;7.90;34.36
13387;BME280;6763;48.524;9.044;2023-02-28T09:31:57;98428.38;;;7.99;34.05
13387;BME280;6763;48.524;9.044;2023-02-28T09:34:24;98432.72;;;8.14;33.85
13387;BME280;6763;48.524;9.044;2023-02-28T09:36:49;98437.88;;;8.25;33.66
13387;BME280;6763;48.524;9.044;2023-02-28T09:39:20;98441.34;;;8.33;33.59
13387;BME280;6763;48.524;9.044;2023-02-28T09:41:50;98432.78;;;8.43;33.42
13387;BME280;6763;48.524;9.044;2023-02-28T09:44:30;98436.22;;;8.48;32.96
13387;BME280;6763;48.524;9.044;2023-02-28T09:47:21;98433.63;;;8.52;33.24
13387;BME280;6763;48.524;9.044;2023-02-28T09:49:52;98437.06;;;8.68;32.74
13387;BME280;6763;48.524;9.044;2023-02-28T09:52:19;98438.75;;;8.81;32.38
13387;BME280;6763;48.524;9.044;2023-02-28T09:54:46;98433.56;;;8.93;32.27
13387;BME280;6763;48.524;9.044;2023-02-28T09:57:35;98442.16;;;9.06;32.27
13387;BME280;6763;48.524;9.044;2023-02-28T10:00:32;98437.81;;;9.17;31.71
13387;BME280;6763;48.524;9.044;2023-02-28T10:05:52;98451.50;;;9.51;31.46
13387;BME280;6763;48.524;9.044;2023-02-28T10:08:30;98449.78;;;9.51;31.01
13387;BME280;6763;48.524;9.044;2023-02-28T10:10:59;98444.59;;;9.53;30.87
13387;BME280;6763;48.524;9.044;2023-02-28T10:13:50;98456.59;;;9.67;30.56
13387;BME280;6763;48.524;9.044;2023-02-28T10:16:33;98450.53;;;9.73;30.30
13387;BME280;6763;48.524;9.044;2023-02-28T10:19:09;98446.22;;;9.75;30.60
13387;BME280;6763;48.524;9.044;2023-02-28T10:21:42;98451.31;;;9.87;30.72
13387;BME280;6763;48.524;9.044;2023-02-28T10:24:20;98458.19;;;9.95;30.54
13387;BME280;6763;48.524;9.044;2023-02-28T10:26:48;98452.97;;;10.06;30.47
13387;BME280;6763;48.524;9.044;2023-02-28T10:29:16;98452.88;;;10.24;30.36
13387;BME280;6763;48.524;9.044;2023-02-28T10:31:41;98448.47;;;10.37;29.16
13387;BME280;6763;48.524;9.044;2023-02-28T10:34:10;98462.38;;;10.18;29.18
13387;BME280;6763;48.524;9.044;2023-02-28T10:36:37;98464.09;;;10.17;29.41
13387;BME280;6763;48.524;9.044;2023-02-28T10:39:38;98456.22;;;10.35;29.57
13387;BME280;6763;48.524;9.044;2023-02-28T10:42:05;98460.44;;;10.53;29.60
13387;BME280;6763;48.524;9.044;2023-02-28T10:44:43;98455.94;;;10.72;29.07
13387;BME280;6763;48.524;9.044;2023-02-28T10:47:15;98461.84;;;10.89;28.93
13387;BME280;6763;48.524;9.044;2023-02-28T10:49:47;98451.38;;;10.99;28.78
13387;BME280;6763;48.524;9.044;2023-02-28T10:52:13;98447.00;;;11.07;28.24
13387;BME280;6763;48.524;9.044;2023-02-28T10:54:38;98453.84;;;11.11;28.28
13387;BME280;6763;48.524;9.044;2023-02-28T10:57:23;98456.38;;;11.17;28.13
13387;BME280;6763;48.524;9.044;2023-02-28T11:00:12;98443.31;;;11.28;28.19
13387;BME280;6763;48.524;9.044;2023-02-28T11:02:38;98456.97;;;11.44;27.78
13387;BME280;6763;48.524;9.044;2023-02-28T11:05:32;98450.03;;;11.44;27.78
13387;BME280;6763;48.524;9.044;2023-02-28T11:08:18;98456.03;;;11.48;27.83
13387;BME280;6763;48.524;9.044;2023-02-28T11:10:54;98452.47;;;11.59;27.72
13387;BME280;6763;48.524;9.044;2023-02-28T11:13:26;98460.16;;;11.65;27.72
13387;BME280;6763;48.524;9.044;2023-02-28T11:15:55;98459.16;;;11.80;27.44
13387;BME280;6763;48.524;9.044;2023-02-28T11:21:02;98456.75;;;12.29;26.86
13387;BME280;6763;48.524;9.044;2023-02-28T11:23:30;98456.44;;;12.49;26.57
13387;BME280;6763;48.524;9.044;2023-02-28T11:26:00;98469.13;;;12.67;26.54
13387;BME280;6763;48.524;9.044;2023-02-28T11:36:21;98449.34;;;12.60;25.78
13387;BME280;6763;48.524;9.044;2023-02-28T11:38:50;98451.94;;;12.60;26.28
13387;BME280;6763;48.524;9.044;2023-02-28T11:47:09;98447.53;;;12.63;25.70
13387;BME280;6763;48.524;9.044;2023-02-28T11:57:39;98430.56;;;14.23;24.54
13387;BME280;6763;48.524;9.044;2023-02-28T12:05:41;98437.97;;;14.01;23.66
13387;BME280;6763;48.524;9.044;2023-02-28T12:08:26;98432.44;;;13.77;24.43
13387;BME280;6763;48.524;9.044;2023-02-28T12:11:10;98429.31;;;13.61;24.43
13387;BME280;6763;48.524;9.044;2023-02-28T12:13:52;98428.00;;;13.80;24.54
13387;BME280;6763;48.524;9.044;2023-02-28T12:16:35;98426.16;;;13.87;24.17
13387;BME280;6763;48.524;9.044;2023-02-28T12:19:16;98429.03;;;13.75;24.01
13387;BME280;6763;48.524;9.044;2023-02-28T12:24:54;98423.75;;;13.35;24.50
13387;BME280;6763;48.524;9.044;2023-02-28T12:27:27;98416.31;;;13.59;24.62
13387;BME280;6763;48.524;9.044;2023-02-28T12:30:00;98420.09;;;13.86;23.91
13387;BME280;6763;48.524;9.044;2023-02-28T12:32:39;98414.47;;;14.04;23.79
13387;BME280;6763;48.524;9.044;2023-02-28T12:35:10;98427.38;;;14.10;nan
13387;BME280;6763;48.524;9.044;2023-02-28T12:37:47;98414.59;;;14.38;23.88
13387;BME280;6763;48.524;9.044;2023-02-28T12:40:20;98406.06;;;14.67;23.57
13387;BME280;6763;48.524;9.044;2023-02-28T12:42:53;98407.75;;;14.69;23.33
13387;BME280;6763;48.524;9.044;2023-02-28T12:45:42;98411.69;;;14.50;22.79
13387;BME280;6763;48.524;9.044;2023-02-28T12:48:14;98409.53;;;14.32;23.65
13387;BME280;6763;48.524;9.044;2023-02-28T12:50:40;98406.66;;;14.78;23.13
13387;BME280;6763;48.524;9.044;2023-02-28T12:53:17;98394.78;;;15.31;22.65
13387;BME280;6763;48.524;9.044;2023-02-28T12:55:54;98390.47;;;15.91;22.02
13387;BME280;6763;48.524;9.044;2023-02-28T13:03:48;98379.16;;;18.15;20.00
13387;BME280;6763;48.524;9.044;2023-02-28T13:09:11;98374.31;;;18.91;19.06
13387;BME280;6763;48.524;9.044;2023-02-28T13:11:51;98367.72;;;19.21;18.54
13387;BME280;6763;48.524;9.044;2023-02-28T13:14:30;98365.63;;;19.29;18.26
13387;BME280;6763;48.524;9.044;2023-02-28T13:19:33;98357.50;;;18.54;18.44
13387;BME280;6763;48.524;9.044;2023-02-28T13:22:00;98363.53;;;17.90;19.14
13387;BME280;6763;48.524;9.044;2023-02-28T13:29:40;98377.97;;;16.29;20.80
13387;BME280;6763;48.524;9.044;2023-02-28T13:34:38;98368.50;;;16.52;21.03
13387;BME280;6763;48.524;9.044;2023-02-28T13:50:19;98368.75;;;18.56;18.85
13387;BME280;6763;48.524;9.044;2023-02-28T13:56:04;98375.13;;;16.36;20.14
13387;BME280;6763;48.524;9.044;2023-02-28T14:06:47;98355.00;;;15.84;21.58
13387;BME280;6763;48.524;9.044;2023-02-28T14:11:49;98377.25;;;16.78;20.95
13387;BME280;6763;48.524;9.044;2023-02-28T14:17:03;98364.28;;;16.74;20.48
13387;BME280;6763;48.524;9.044;2023-02-28T14:19:31;98364.78;;;16.86;20.91
13387;BME280;6763;48.524;9.044;2023-02-28T14:22:14;98367.75;;;17.48;20.21
13387;BME280;6763;48.524;9.044;2023-02-28T14:27:34;98348.78;;;18.74;18.59
13387;BME280;6763;48.524;9.044;2023-02-28T14:36:03;98347.28;;;18.47;18.87
13387;BME280;6763;48.524;9.044;2023-02-28T14:38:56;98337.41;;;17.88;18.66
13387;BME280;6763;48.524;9.044;2023-02-28T14:41:30;98356.63;;;17.43;19.44
13387;BME280;6763;48.524;9.044;2023-02-28T14:43:59;98351.38;;;17.43;19.52
13387;BME280;6763;48.524;9.044;2023-02-28T14:46:30;98350.56;;;17.41;19.62
13387;BME280;6763;48.524;9.044;2023-02-28T14:48:57;98356.69;;;17.64;19.91
13387;BME280;6763;48.524;9.044;2023-02-28T14:51:23;98364.34;;;17.92;19.68
13387;BME280;6763;48.524;9.044;2023-02-28T14:53:55;98349.06;;;18.25;19.39
13387;BME280;6763;48.524;9.044;2023-02-28T14:56:29;98345.63;;;18.86;18.87
13387;BME280;6763;48.524;9.044;2023-02-28T14:58:56;98342.75;;;18.92;18.33
13387;BME280;6763;48.524;9.044;2023-02-28T15:01:24;98345.69;;;18.65;18.50
13387;BME280;6763;48.524;9.044;2023-02-28T15:04:00;98356.91;;;18.25;18.84
13387;BME280;6763;48.524;9.044;2023-02-28T15:06:28;98357.97;;;18.21;19.09
13387;BME280;6763;48.524;9.044;2023-02-28T15:09:14;98356.03;;;18.26;18.92
13387;BME280;6763;48.524;9.044;2023-02-28T15:11:41;98350.78;;;18.47;18.82
13387;BME280;6763;48.524;9.044;2023-02-28T15:14:07;98355.53;;;18.60;18.57
13387;BME280;6763;48.524;9.044;2023-02-28T15:16:41;98342.53;;;18.56;18.49
13387;BME280;6763;48.524;9.044;2023-02-28T15:19:16;98357.59;;;18.30;18.81
13387;BME280;6763;48.524;9.044;2023-02-28T15:21:48;98351.41;;;17.87;18.91
13387;BME280;6763;48.524;9.044;2023-02-28T15:24:43;98353.59;;;17.05;19.68
13387;BME280;6763;48.524;9.044;2023-02-28T15:27:14;98356.44;;;15.94;21.08
13387;BME280;6763;48.524;9.044;2023-02-28T15:29:47;98336.41;;;15.06;22.00